createdAt,value
2017-10-05T00:00:36.781Z,73.69
2017-10-05T00:01:17.373Z,73.79
2017-10-05T00:01:57.950Z,73.5
2017-10-05T00:02:38.535Z,73.6
2017-10-05T00:03:19.137Z,74.27
2017-10-05T00:03:59.743Z,73.6
2017-10-05T00:04:40.334Z,73.6
2017-10-05T00:05:20.906Z,73.69
2017-10-05T00:06:01.472Z,73.5
2017-10-05T00:06:42.037Z,73.69
2017-10-05T00:07:22.611Z,73.5
2017-10-05T00:08:03.190Z,73.79
2017-10-05T00:08:43.777Z,73.79
2017-10-05T00:09:24.329Z,73.41
2017-10-05T00:10:04.911Z,73.5
2017-10-05T00:10:45.478Z,73.5
2017-10-05T00:11:26.061Z,73.6
2017-10-05T00:12:06.637Z,73.5
2017-10-05T00:12:47.237Z,73.5
2017-10-05T00:13:27.828Z,73.32
2017-10-05T00:14:08.430Z,73.5
2017-10-05T00:14:49.017Z,73.69
2017-10-05T00:15:29.607Z,73.79
2017-10-05T00:16:10.226Z,73.32
2017-10-05T00:16:50.912Z,73.41
2017-10-05T00:17:31.478Z,73.32
2017-10-05T00:18:12.078Z,73.5
2017-10-05T00:18:52.669Z,73.22
2017-10-05T00:19:33.277Z,73.32
2017-10-05T00:20:13.855Z,73.41
2017-10-05T00:20:54.452Z,73.69
2017-10-05T00:21:35.022Z,73.41
2017-10-05T00:22:15.615Z,73.32
2017-10-05T00:22:56.171Z,73.22
2017-10-05T00:23:36.750Z,73.6
2017-10-05T00:24:17.306Z,73.5
2017-10-05T00:24:57.894Z,73.6
2017-10-05T00:25:38.475Z,73.69
2017-10-05T00:26:19.036Z,73.69
2017-10-05T00:26:59.596Z,73.5
2017-10-05T00:27:40.150Z,73.69
2017-10-05T00:29:37.840Z,73.98
2017-10-05T00:30:18.410Z,73.69
2017-10-05T00:30:58.975Z,73.6
2017-10-05T00:31:39.570Z,73.69
2017-10-05T00:32:20.186Z,73.79
2017-10-05T00:33:00.765Z,73.6
2017-10-05T00:33:41.342Z,73.79
2017-10-05T00:34:21.957Z,73.98
2017-10-05T00:35:02.546Z,74.08
2017-10-05T00:35:43.950Z,74.08
2017-10-05T00:36:24.658Z,73.69
2017-10-05T00:37:05.360Z,73.69
2017-10-05T00:37:45.958Z,74.17
2017-10-05T00:38:26.549Z,74.08
2017-10-05T00:39:07.145Z,73.98
2017-10-05T00:39:47.751Z,73.79
2017-10-05T00:40:28.360Z,73.98
2017-10-05T00:41:08.952Z,74.08
2017-10-05T00:41:49.576Z,73.88
2017-10-05T00:42:30.183Z,74.08
2017-10-05T00:43:10.786Z,73.98
2017-10-05T00:43:51.360Z,73.88
2017-10-05T00:44:31.938Z,74.08
2017-10-05T00:45:12.537Z,74.08
2017-10-05T00:45:53.104Z,73.98
2017-10-05T00:46:33.684Z,74.27
2017-10-05T00:47:14.253Z,74.46
2017-10-05T00:47:54.846Z,73.88
2017-10-05T00:48:35.432Z,73.88
2017-10-05T00:49:16.093Z,74.08
2017-10-05T00:49:56.678Z,74.55
2017-10-05T00:50:37.257Z,74.46
2017-10-05T00:51:17.854Z,73.98
2017-10-05T00:51:58.436Z,74.37
2017-10-05T00:52:39.042Z,74.17
2017-10-05T00:53:19.613Z,74.17
2017-10-05T00:54:00.187Z,74.17
2017-10-05T00:54:40.806Z,73.88
2017-10-05T00:55:21.360Z,74.08
2017-10-05T00:56:01.936Z,73.88
2017-10-05T00:56:42.523Z,74.46
2017-10-05T00:57:23.105Z,74.65
2017-10-05T00:58:03.695Z,74.37
2017-10-05T00:58:44.266Z,74.17
2017-10-05T00:59:24.876Z,74.17
2017-10-05T01:00:05.443Z,74.08
2017-10-05T01:00:46.013Z,74.17
2017-10-05T01:01:26.591Z,74.27
2017-10-05T01:02:07.207Z,74.08
2017-10-05T01:02:47.822Z,74.17
2017-10-05T01:03:28.428Z,74.17
2017-10-05T01:04:09.025Z,74.17
2017-10-05T01:04:49.617Z,74.65
2017-10-05T01:05:30.269Z,73.98
2017-10-05T01:06:10.887Z,73.98
2017-10-05T01:06:51.471Z,73.98
2017-10-05T01:07:32.089Z,73.98
2017-10-05T01:08:12.683Z,74.17
2017-10-05T01:08:53.269Z,74.08
2017-10-05T01:09:33.894Z,73.98
2017-10-05T01:10:14.485Z,74.37
2017-10-05T01:10:55.069Z,73.98
2017-10-05T01:11:35.687Z,73.98
2017-10-05T01:12:16.278Z,74.46
2017-10-05T01:12:56.944Z,74.46
2017-10-05T01:13:37.580Z,74.46
2017-10-05T01:14:18.148Z,74.74
2017-10-05T01:14:58.708Z,74.65
2017-10-05T01:15:39.306Z,74.46
2017-10-05T01:16:19.888Z,74.65
2017-10-05T01:17:00.481Z,74.55
2017-10-05T01:17:41.095Z,74.93
2017-10-05T01:18:21.692Z,75.03
2017-10-05T01:19:02.330Z,74.93
2017-10-05T01:19:42.907Z,74.84
2017-10-05T01:20:23.489Z,74.93
2017-10-05T01:21:04.083Z,74.65
2017-10-05T01:21:44.695Z,74.74
2017-10-05T01:22:25.261Z,74.74
2017-10-05T01:23:05.876Z,74.46
2017-10-05T01:23:46.461Z,74.65
2017-10-05T01:24:27.036Z,74.93
2017-10-05T01:25:07.622Z,75.03
2017-10-05T01:25:48.230Z,75.22
2017-10-05T01:26:28.792Z,74.93
2017-10-05T01:27:09.376Z,75.22
2017-10-05T01:27:49.978Z,74.46
2017-10-05T01:28:30.543Z,75.13
2017-10-05T01:29:11.133Z,74.93
2017-10-05T01:29:51.727Z,74.93
2017-10-05T01:30:32.320Z,74.84
2017-10-05T01:31:12.904Z,75.03
2017-10-05T01:31:53.505Z,74.37
2017-10-05T01:32:34.108Z,74.74
2017-10-05T01:33:14.681Z,74.74
2017-10-05T01:33:55.275Z,75.03
2017-10-05T01:34:35.858Z,75.13
2017-10-05T01:35:16.467Z,74.65
2017-10-05T01:35:57.126Z,75.13
2017-10-05T01:36:37.715Z,75.03
2017-10-05T01:37:18.289Z,74.93
2017-10-05T01:37:58.867Z,74.93
2017-10-05T01:38:39.485Z,74.65
2017-10-05T01:39:20.085Z,75.03
2017-10-05T01:40:00.695Z,75.32
2017-10-05T01:40:41.303Z,75.32
2017-10-05T01:41:21.873Z,76.18
2017-10-05T01:42:02.451Z,75.32
2017-10-05T01:42:43.070Z,75.13
2017-10-05T01:43:23.661Z,75.03
2017-10-05T01:44:04.263Z,75.13
2017-10-05T01:44:44.850Z,74.93
2017-10-05T01:45:25.429Z,74.74
2017-10-05T01:46:06.007Z,74.74
2017-10-05T01:46:46.580Z,75.03
2017-10-05T01:47:27.170Z,75.22
2017-10-05T01:48:07.763Z,75.03
2017-10-05T01:48:48.344Z,74.93
2017-10-05T01:49:28.925Z,74.93
2017-10-05T01:50:09.536Z,75.03
2017-10-05T01:50:50.136Z,74.93
2017-10-05T01:51:30.721Z,74.93
2017-10-05T01:52:11.316Z,75.32
2017-10-05T01:52:51.939Z,75.32
2017-10-05T01:53:32.515Z,75.42
2017-10-05T01:54:13.091Z,75.42
2017-10-05T01:54:53.674Z,75.51
2017-10-05T01:55:34.249Z,74.93
2017-10-05T01:56:14.829Z,75.51
2017-10-05T01:56:55.424Z,75.32
2017-10-05T01:57:36.016Z,75.42
2017-10-05T01:58:16.577Z,75.32
2017-10-05T01:58:57.210Z,75.32
2017-10-05T01:59:37.793Z,75.42
2017-10-05T02:00:18.414Z,75.42
2017-10-05T02:00:59.022Z,75.42
2017-10-05T02:01:39.605Z,75.6
2017-10-05T02:02:20.204Z,75.79
2017-10-05T02:03:00.801Z,75.51
2017-10-05T02:03:41.434Z,75.6
2017-10-05T02:04:22.045Z,75.7
2017-10-05T02:05:02.609Z,75.7
2017-10-05T02:05:43.187Z,75.42
2017-10-05T02:06:23.808Z,75.42
2017-10-05T02:07:04.407Z,75.22
2017-10-05T02:07:44.998Z,75.32
2017-10-05T02:08:25.662Z,75.42
2017-10-05T02:09:06.314Z,75.42
2017-10-05T02:09:46.871Z,75.42
2017-10-05T02:10:27.497Z,75.7
2017-10-05T02:11:08.113Z,75.32
2017-10-05T02:11:48.701Z,75.32
2017-10-05T02:12:29.288Z,75.7
2017-10-05T02:13:09.901Z,75.42
2017-10-05T02:13:50.508Z,75.42
2017-10-05T02:14:31.107Z,75.32
2017-10-05T02:15:11.722Z,76.27
2017-10-05T02:15:52.306Z,75.89
2017-10-05T02:16:32.956Z,76.18
2017-10-05T02:17:13.566Z,76.18
2017-10-05T02:17:54.164Z,76.18
2017-10-05T02:18:34.725Z,75.98
2017-10-05T02:19:15.294Z,76.27
2017-10-05T02:19:55.887Z,75.89
2017-10-05T02:20:36.478Z,75.98
2017-10-05T02:21:17.068Z,76.46
2017-10-05T02:21:57.667Z,76.37
2017-10-05T02:22:38.260Z,76.27
2017-10-05T02:23:18.855Z,75.98
2017-10-05T02:23:59.457Z,76.08
2017-10-05T02:24:40.053Z,76.27
2017-10-05T02:25:20.622Z,75.89
2017-10-05T02:26:01.214Z,75.98
2017-10-05T02:26:41.812Z,76.08
2017-10-05T02:27:22.409Z,76.27
2017-10-05T02:28:03.028Z,76.18
2017-10-05T02:28:43.596Z,75.89
2017-10-05T02:29:24.221Z,76.27
2017-10-05T02:30:04.817Z,76.46
2017-10-05T02:30:45.591Z,76.84
2017-10-05T02:31:26.227Z,76.37
2017-10-05T02:32:06.799Z,76.94
2017-10-05T02:32:47.441Z,76.84
2017-10-05T02:33:28.139Z,76.08
2017-10-05T02:34:08.880Z,76.08
2017-10-05T02:34:49.470Z,76.46
2017-10-05T02:35:30.053Z,76.84
2017-10-05T02:36:10.631Z,76.94
2017-10-05T02:36:51.222Z,76.37
2017-10-05T02:37:31.822Z,76.65
2017-10-05T02:38:12.406Z,76.18
2017-10-05T02:38:53.009Z,76.08
2017-10-05T02:39:33.741Z,76.46
2017-10-05T02:40:14.344Z,76.84
2017-10-05T02:40:54.898Z,76.84
2017-10-05T02:41:35.488Z,76.46
2017-10-05T02:42:16.087Z,76.65
2017-10-05T02:42:56.907Z,76.65
2017-10-05T02:43:37.465Z,76.65
2017-10-05T02:44:18.055Z,76.84
2017-10-05T02:44:58.641Z,76.84
2017-10-05T02:45:39.217Z,76.75
2017-10-05T02:46:19.776Z,76.75
2017-10-05T02:47:00.358Z,76.75
2017-10-05T02:47:40.924Z,76.37
2017-10-05T02:48:21.498Z,76.94
2017-10-05T02:49:02.071Z,76.65
2017-10-05T02:49:42.637Z,76.46
2017-10-05T02:50:23.211Z,76.94
2017-10-05T02:51:03.783Z,77.03
2017-10-05T02:51:44.368Z,77.23
2017-10-05T02:52:24.971Z,76.56
2017-10-05T02:53:05.568Z,76.46
2017-10-05T02:53:46.164Z,76.46
2017-10-05T02:54:26.732Z,76.94
2017-10-05T02:55:07.325Z,76.84
2017-10-05T02:55:47.922Z,77.23
2017-10-05T02:56:28.557Z,76.94
2017-10-05T02:57:09.129Z,77.32
2017-10-05T02:57:49.691Z,77.23
2017-10-05T02:58:30.278Z,77.32
2017-10-05T02:59:10.852Z,77.8
2017-10-05T02:59:51.433Z,77.51
2017-10-05T03:00:31.994Z,77.8
2017-10-05T03:01:12.626Z,77.42
2017-10-05T03:01:53.179Z,77.61
2017-10-05T03:02:33.781Z,77.7
2017-10-05T03:03:14.461Z,77.32
2017-10-05T03:03:54.986Z,77.61
2017-10-05T03:04:35.607Z,77.61
2017-10-05T03:05:16.176Z,77.99
2017-10-05T03:05:56.764Z,78.47
2017-10-05T03:06:37.346Z,78.09
2017-10-05T03:07:18.040Z,78.09
2017-10-05T03:07:58.615Z,77.99
2017-10-05T03:08:39.192Z,78.18
2017-10-05T03:09:19.767Z,78.37
2017-10-05T03:10:00.336Z,78.28
2017-10-05T03:10:40.914Z,78.09
2017-10-05T03:11:21.503Z,78.09
2017-10-05T03:12:02.105Z,78.28
2017-10-05T03:12:42.704Z,78.28
2017-10-05T03:13:23.314Z,78.37
2017-10-05T03:14:03.884Z,78.47
2017-10-05T03:14:44.465Z,78.94
2017-10-05T03:15:25.044Z,78.94
2017-10-05T03:16:05.625Z,79.23
2017-10-05T03:16:46.237Z,79.23
2017-10-05T03:17:26.826Z,79.61
2017-10-05T03:18:07.518Z,79.43
2017-10-05T03:18:48.032Z,79.52
2017-10-05T03:19:28.638Z,79.23
2017-10-05T03:20:09.240Z,79.8
2017-10-05T03:20:49.845Z,79.71
2017-10-05T03:21:30.433Z,80.38
2017-10-05T03:22:11.043Z,80.47
2017-10-05T03:22:51.652Z,80.47
2017-10-05T03:23:32.241Z,81.14
2017-10-05T03:24:12.848Z,81.24
2017-10-05T03:24:53.510Z,81.14
2017-10-05T03:25:34.095Z,81.43
2017-10-05T03:26:14.672Z,81.52
2017-10-05T03:26:55.266Z,81.29
2017-10-05T03:27:35.845Z,81.2
2017-10-05T03:28:16.405Z,81.24
2017-10-05T03:28:57.067Z,81.9
2017-10-05T03:29:37.667Z,82
2017-10-05T03:30:18.262Z,82.15
2017-10-05T03:30:58.877Z,82.53
2017-10-05T03:31:39.463Z,82.53
2017-10-05T03:32:20.116Z,82.82
2017-10-05T03:33:00.698Z,83.14
2017-10-05T03:33:41.595Z,83.29
2017-10-05T03:34:22.116Z,82.63
2017-10-05T03:35:02.692Z,83.01
2017-10-05T03:35:43.281Z,83.11
2017-10-05T03:36:23.859Z,82.72
2017-10-05T03:37:04.438Z,82.82
2017-10-05T03:37:45.044Z,83.48
2017-10-05T03:38:25.772Z,83.87
2017-10-05T03:39:06.283Z,83.87
2017-10-05T03:39:46.894Z,84.06
2017-10-05T03:40:27.502Z,84.25
2017-10-05T03:41:08.100Z,84.44
2017-10-05T03:41:48.806Z,84.72
2017-10-05T03:42:29.414Z,84.82
2017-10-05T03:43:10.005Z,84.53
2017-10-05T03:43:50.587Z,84.82
2017-10-05T03:44:31.212Z,85.39
2017-10-05T03:45:11.817Z,85.49
2017-10-05T03:45:52.428Z,85.49
2017-10-05T03:46:33.026Z,85.49
2017-10-05T03:47:13.620Z,85.49
2017-10-05T03:47:54.239Z,85.68
2017-10-05T03:48:34.853Z,85.68
2017-10-05T03:49:15.429Z,86.63
2017-10-05T03:49:55.994Z,86.63
2017-10-05T03:50:36.635Z,86.54
2017-10-05T03:51:17.239Z,86.63
2017-10-05T03:51:57.832Z,86.73
2017-10-05T03:52:38.439Z,86.54
2017-10-05T03:53:19.046Z,86.35
2017-10-05T03:53:59.661Z,86.82
2017-10-05T03:54:40.245Z,86.73
2017-10-05T03:55:20.842Z,87.4
2017-10-05T03:56:01.447Z,87.3
2017-10-05T03:56:42.011Z,87.49
2017-10-05T03:57:22.600Z,87.4
2017-10-05T03:58:03.184Z,87.21
2017-10-05T03:58:43.781Z,87.87
2017-10-05T03:59:24.349Z,87.49
2017-10-05T04:00:04.982Z,87.49
2017-10-05T04:00:45.522Z,87.87
2017-10-05T04:01:26.117Z,87.68
2017-10-05T04:02:06.768Z,87.49
2017-10-05T04:02:47.353Z,87.3
2017-10-05T04:03:27.930Z,87.78
2017-10-05T04:04:08.517Z,87.97
2017-10-05T04:04:49.123Z,87.87
2017-10-05T04:05:29.725Z,88.16
2017-10-05T04:06:10.360Z,88.54
2017-10-05T04:06:50.932Z,88.26
2017-10-05T04:07:31.612Z,88.26
2017-10-05T04:08:12.236Z,88.73
2017-10-05T04:08:52.820Z,88.83
2017-10-05T04:09:33.373Z,88.54
2017-10-05T04:10:13.981Z,88.64
2017-10-05T04:10:54.545Z,88.73
2017-10-05T04:11:35.130Z,89.5
2017-10-05T04:12:15.717Z,88.54
2017-10-05T04:12:56.294Z,89.4
2017-10-05T04:13:36.918Z,89.36
2017-10-05T04:14:17.509Z,89.36
2017-10-05T04:14:58.085Z,89.07
2017-10-05T04:15:38.715Z,89.17
2017-10-05T04:16:19.323Z,89.54
2017-10-05T04:16:59.909Z,89.64
2017-10-05T04:17:40.481Z,89.45
2017-10-05T04:18:21.074Z,89.26
2017-10-05T04:19:01.814Z,89.45
2017-10-05T04:19:42.392Z,90.03
2017-10-05T04:20:22.982Z,90.41
2017-10-05T04:21:03.654Z,90.12
2017-10-05T04:21:44.285Z,90.88
2017-10-05T04:22:24.894Z,90.31
2017-10-05T04:23:05.462Z,90.41
2017-10-05T04:23:46.049Z,90.5
2017-10-05T04:24:26.622Z,90.5
2017-10-05T04:25:07.204Z,90.88
2017-10-05T04:25:47.798Z,90.59
2017-10-05T04:26:28.422Z,90.59
2017-10-05T04:27:08.997Z,90.88
2017-10-05T04:27:49.609Z,90.98
2017-10-05T04:28:30.224Z,91.27
2017-10-05T04:29:10.831Z,91.46
2017-10-05T04:29:51.435Z,90.79
2017-10-05T04:30:32.043Z,90.79
2017-10-05T04:31:12.601Z,91.07
2017-10-05T04:31:53.173Z,91.07
2017-10-05T04:32:33.752Z,91.64
2017-10-05T04:33:14.319Z,91.46
2017-10-05T04:33:54.907Z,91.83
2017-10-05T04:34:35.478Z,91.93
2017-10-05T04:35:16.079Z,91.83
2017-10-05T04:35:56.669Z,92.22
2017-10-05T04:36:37.233Z,91.93
2017-10-05T04:37:17.889Z,91.83
2017-10-05T04:37:58.520Z,91.93
2017-10-05T04:38:39.085Z,92.22
2017-10-05T04:39:19.745Z,91.93
2017-10-05T04:40:00.304Z,92.32
2017-10-05T04:40:40.907Z,92.03
2017-10-05T04:41:21.504Z,91.83
2017-10-05T04:42:02.122Z,92.41
2017-10-05T04:42:42.699Z,91.83
2017-10-05T04:43:23.275Z,91.83
2017-10-05T04:44:03.858Z,92.6
2017-10-05T04:44:44.468Z,92.12
2017-10-05T04:45:25.051Z,91.64
2017-10-05T04:46:05.667Z,91.93
2017-10-05T04:46:46.314Z,92.6
2017-10-05T04:47:26.938Z,91.83
2017-10-05T04:48:07.637Z,92.22
2017-10-05T04:48:48.213Z,92.12
2017-10-05T04:49:28.834Z,92.5
2017-10-05T04:50:09.457Z,92.98
2017-10-05T04:50:50.037Z,92.98
2017-10-05T04:51:30.672Z,93.03
2017-10-05T04:52:11.237Z,93.03
2017-10-05T04:52:51.846Z,92.5
2017-10-05T04:53:32.452Z,92.93
2017-10-05T04:54:13.095Z,92.84
2017-10-05T04:54:53.711Z,92.88
2017-10-05T04:55:34.535Z,92.55
2017-10-05T04:56:15.126Z,92.65
2017-10-05T04:56:55.701Z,93.41
2017-10-05T04:57:36.358Z,93.51
2017-10-05T04:58:16.929Z,93.88
2017-10-05T04:58:57.541Z,93.7
2017-10-05T04:59:38.278Z,93.32
2017-10-05T05:00:18.879Z,93.84
2017-10-05T05:00:59.459Z,93.6
2017-10-05T05:01:40.054Z,93.7
2017-10-05T05:02:20.634Z,93.98
2017-10-05T05:03:01.263Z,94.56
2017-10-05T05:03:41.848Z,94.46
2017-10-05T05:04:22.443Z,94.37
2017-10-05T05:05:03.024Z,94.37
2017-10-05T05:05:43.600Z,94.46
2017-10-05T05:06:24.219Z,94.46
2017-10-05T05:07:04.837Z,93.98
2017-10-05T05:07:45.417Z,94.37
2017-10-05T05:08:26.003Z,94.37
2017-10-05T05:09:06.624Z,94.27
2017-10-05T05:09:47.191Z,94.27
2017-10-05T05:10:27.750Z,94.17
2017-10-05T05:11:08.336Z,94.56
2017-10-05T05:11:48.936Z,95.22
2017-10-05T05:12:29.506Z,95.98
2017-10-05T05:13:10.084Z,96.46
2017-10-05T05:13:50.671Z,96.41
2017-10-05T05:14:31.260Z,96.32
2017-10-05T05:15:11.840Z,96.32
2017-10-05T05:15:52.441Z,95.17
2017-10-05T05:16:33.151Z,93.6
2017-10-05T05:17:13.764Z,93.02
2017-10-05T05:17:54.438Z,92.74
2017-10-05T05:18:35.001Z,92.93
2017-10-05T05:19:15.577Z,92.17
2017-10-05T05:19:56.212Z,92.07
2017-10-05T05:20:36.816Z,92.02
2017-10-05T05:21:17.389Z,91.64
2017-10-05T05:21:58.004Z,91.07
2017-10-05T05:22:38.596Z,90.97
2017-10-05T05:23:19.172Z,90.11
2017-10-05T05:23:59.739Z,89.64
2017-10-05T05:24:40.336Z,89.11
2017-10-05T05:25:20.909Z,88.87
2017-10-05T05:26:01.474Z,89.11
2017-10-05T05:26:42.076Z,88.44
2017-10-05T05:27:22.642Z,88.44
2017-10-05T05:28:03.228Z,88.63
2017-10-05T05:28:43.802Z,87.77
2017-10-05T05:29:24.388Z,87.58
2017-10-05T05:30:04.957Z,87.58
2017-10-05T05:30:45.537Z,87.29
2017-10-05T05:31:26.152Z,86.72
2017-10-05T05:32:06.748Z,86.43
2017-10-05T05:32:47.354Z,85.48
2017-10-05T05:33:27.946Z,85.29
2017-10-05T05:34:08.576Z,84.62
2017-10-05T05:34:49.145Z,84.81
2017-10-05T05:35:29.703Z,84.77
2017-10-05T05:36:10.273Z,85.38
2017-10-05T05:36:51.238Z,86.01
2017-10-05T05:37:31.845Z,86.3
2017-10-05T05:38:12.429Z,87.35
2017-10-05T05:38:53.151Z,87.54
2017-10-05T05:39:33.727Z,87.54
2017-10-05T05:40:14.505Z,87.68
2017-10-05T05:40:54.983Z,88.16
2017-10-05T05:41:35.605Z,89.12
2017-10-05T05:42:16.217Z,89.59
2017-10-05T05:42:56.859Z,90.07
2017-10-05T05:43:37.517Z,89.88
2017-10-05T05:44:18.115Z,90.36
2017-10-05T05:44:58.687Z,90.45
2017-10-05T05:45:39.266Z,90.59
2017-10-05T05:46:19.849Z,90.98
2017-10-05T05:47:00.452Z,91.17
2017-10-05T05:47:41.073Z,91.17
2017-10-05T05:48:21.661Z,91.55
2017-10-05T05:49:02.237Z,92.03
2017-10-05T05:49:42.867Z,91.83
2017-10-05T05:50:23.480Z,92.03
2017-10-05T05:51:04.064Z,92.41
2017-10-05T05:51:44.789Z,92.12
2017-10-05T05:52:25.556Z,92.98
2017-10-05T05:53:06.254Z,92.41
2017-10-05T05:53:47.280Z,92.88
2017-10-05T05:54:27.748Z,92.88
2017-10-05T05:55:08.376Z,92.69
2017-10-05T05:55:48.942Z,92.98
2017-10-05T05:56:29.622Z,92.69
2017-10-05T05:57:10.218Z,93.55
2017-10-05T05:57:50.813Z,93.55
2017-10-05T05:58:31.425Z,93.27
2017-10-05T05:59:12.037Z,93.55
2017-10-05T05:59:52.665Z,93.65
2017-10-05T06:00:33.305Z,93.74
2017-10-05T06:01:13.894Z,93.65
2017-10-05T06:01:54.455Z,93.74
2017-10-05T06:02:35.051Z,94.03
2017-10-05T06:03:15.616Z,94.51
2017-10-05T06:03:56.336Z,94.12
2017-10-05T06:04:36.926Z,94.51
2017-10-05T06:05:17.514Z,94.27
2017-10-05T06:05:58.136Z,94.84
2017-10-05T06:06:38.712Z,95.03
2017-10-05T06:07:19.304Z,94.84
2017-10-05T06:07:59.895Z,94.93
2017-10-05T06:08:40.491Z,94.93
2017-10-05T06:09:21.107Z,95.41
2017-10-05T06:10:01.690Z,95.22
2017-10-05T06:10:42.273Z,95.89
2017-10-05T06:11:22.847Z,95.7
2017-10-05T06:12:03.432Z,95.7
2017-10-05T06:12:44.017Z,95.7
2017-10-05T06:13:24.613Z,95.7
2017-10-05T06:14:05.229Z,95.61
2017-10-05T06:14:45.921Z,95.41
2017-10-05T06:15:26.879Z,95.56
2017-10-05T06:16:07.453Z,95.61
2017-10-05T06:16:48.046Z,95.61
2017-10-05T06:17:28.732Z,95.94
2017-10-05T06:18:09.319Z,95.65
2017-10-05T06:18:49.971Z,95.7
2017-10-05T06:19:30.648Z,95.75
2017-10-05T06:20:11.281Z,95.7
2017-10-05T06:20:51.873Z,95.7
2017-10-05T06:21:32.524Z,95.79
2017-10-05T06:22:13.098Z,95.51
2017-10-05T06:22:53.694Z,95.51
2017-10-05T06:23:34.317Z,95.89
2017-10-05T06:24:14.897Z,95.56
2017-10-05T06:24:55.506Z,96.13
2017-10-05T06:25:36.120Z,96.08
2017-10-05T06:26:16.725Z,95.89
2017-10-05T06:26:57.328Z,95.7
2017-10-05T06:27:37.955Z,96.41
2017-10-05T06:28:18.562Z,96.56
2017-10-05T06:28:59.169Z,96.27
2017-10-05T06:29:39.755Z,96.32
2017-10-05T06:30:20.410Z,96.17
2017-10-05T06:31:00.976Z,96.46
2017-10-05T06:31:41.616Z,96.27
2017-10-05T06:32:22.288Z,96.08
2017-10-05T06:33:02.934Z,96.17
2017-10-05T06:33:43.541Z,96.27
2017-10-05T06:34:24.150Z,96.36
2017-10-05T06:35:04.762Z,95.89
2017-10-05T06:35:45.416Z,96.32
2017-10-05T06:36:26.013Z,96.36
2017-10-05T06:37:06.575Z,95.89
2017-10-05T06:37:47.148Z,96.17
2017-10-05T06:38:27.949Z,96.36
2017-10-05T06:39:08.515Z,96.56
2017-10-05T06:39:49.125Z,96.75
2017-10-05T06:40:29.712Z,97.03
2017-10-05T06:41:10.316Z,96.94
2017-10-05T06:41:50.917Z,96.65
2017-10-05T06:42:31.506Z,96.75
2017-10-05T06:43:12.072Z,97.03
2017-10-05T06:43:52.659Z,96.84
2017-10-05T06:44:33.237Z,96.56
2017-10-05T06:45:13.846Z,96.84
2017-10-05T06:45:54.438Z,96.84
2017-10-05T06:46:35.070Z,97.61
2017-10-05T06:47:15.641Z,97.13
2017-10-05T06:47:56.203Z,97.22
2017-10-05T06:48:36.790Z,97.41
2017-10-05T06:49:17.364Z,97.61
2017-10-05T06:49:57.967Z,97.99
2017-10-05T06:50:38.582Z,97.99
2017-10-05T06:51:19.237Z,97.51
2017-10-05T06:51:59.899Z,97.8
2017-10-05T06:52:40.497Z,97.8
2017-10-05T06:53:21.068Z,97.8
2017-10-05T06:54:01.643Z,98.46
2017-10-05T06:54:42.243Z,97.99
2017-10-05T06:55:22.876Z,98.36
2017-10-05T06:56:03.512Z,97.7
2017-10-05T06:56:44.150Z,98.18
2017-10-05T06:57:24.720Z,98.08
2017-10-05T06:58:05.334Z,97.89
2017-10-05T06:58:45.929Z,97.8
2017-10-05T06:59:26.524Z,98.08
2017-10-05T07:00:07.136Z,98.18
2017-10-05T07:00:47.777Z,98.65
2017-10-05T07:01:28.397Z,98.36
2017-10-05T07:02:08.994Z,98.36
2017-10-05T07:02:49.602Z,97.99
2017-10-05T07:03:30.179Z,98.08
2017-10-05T07:04:10.790Z,97.99
2017-10-05T07:04:51.411Z,98.18
2017-10-05T07:05:32.237Z,98.27
2017-10-05T07:06:12.926Z,98.56
2017-10-05T07:06:53.462Z,98.36
2017-10-05T07:07:34.041Z,98.46
2017-10-05T07:08:14.617Z,98.27
2017-10-05T07:08:55.229Z,98.36
2017-10-05T07:09:35.820Z,98.27
2017-10-05T07:10:16.435Z,98.18
2017-10-05T07:10:57.044Z,98.36
2017-10-05T07:11:37.647Z,97.99
2017-10-05T07:12:18.233Z,98.46
2017-10-05T07:12:58.815Z,98.36
2017-10-05T07:13:39.417Z,98.27
2017-10-05T07:14:20.018Z,99.04
2017-10-05T07:15:00.616Z,98.94
2017-10-05T07:15:41.228Z,98.85
2017-10-05T07:16:21.856Z,98.75
2017-10-05T07:17:02.426Z,98.94
2017-10-05T07:17:43.017Z,98.85
2017-10-05T07:18:23.610Z,98.75
2017-10-05T07:19:04.189Z,98.65
2017-10-05T07:19:44.800Z,98.46
2017-10-05T07:20:25.438Z,98.56
2017-10-05T07:21:06.054Z,98.65
2017-10-05T07:21:46.618Z,98.75
2017-10-05T07:22:27.223Z,99.04
2017-10-05T07:23:07.832Z,98.75
2017-10-05T07:23:48.411Z,98.65
2017-10-05T07:24:28.990Z,98.65
2017-10-05T07:25:09.570Z,98.65
2017-10-05T07:25:50.195Z,99.04
2017-10-05T07:26:30.786Z,99.04
2017-10-05T07:27:11.390Z,98.85
2017-10-05T07:27:52.000Z,99.41
2017-10-05T07:28:32.665Z,99.04
2017-10-05T07:29:13.287Z,99.32
2017-10-05T07:29:53.893Z,99.22
2017-10-05T07:30:34.455Z,99.04
2017-10-05T07:31:15.034Z,99.04
2017-10-05T07:31:55.618Z,99.04
2017-10-05T07:32:36.208Z,99.22
2017-10-05T07:33:16.774Z,99.04
2017-10-05T07:33:57.373Z,99.32
2017-10-05T07:34:37.967Z,99.13
2017-10-05T07:35:18.569Z,99.22
2017-10-05T07:35:59.169Z,99.04
2017-10-05T07:36:39.768Z,99.22
2017-10-05T07:37:20.357Z,99.04
2017-10-05T07:38:00.951Z,99.41
2017-10-05T07:38:41.553Z,99.22
2017-10-05T07:39:22.120Z,99.13
2017-10-05T07:40:02.687Z,99.41
2017-10-05T07:40:43.282Z,99.7
2017-10-05T07:41:23.885Z,99.7
2017-10-05T07:42:04.513Z,99.6
2017-10-05T07:42:45.093Z,99.41
2017-10-05T07:43:25.703Z,99.41
2017-10-05T07:44:06.272Z,99.7
2017-10-05T07:44:46.859Z,99.41
2017-10-05T07:45:27.453Z,99.41
2017-10-05T07:46:08.029Z,99.41
2017-10-05T07:46:48.607Z,99.04
2017-10-05T07:47:29.189Z,98.94
2017-10-05T07:48:09.792Z,99.04
2017-10-05T07:48:50.400Z,98.85
2017-10-05T07:49:30.971Z,99.32
2017-10-05T07:50:11.565Z,99.56
2017-10-05T07:50:52.156Z,99.32
2017-10-05T07:51:32.753Z,99.32
2017-10-05T07:52:13.333Z,99.95
2017-10-05T07:52:53.917Z,99.13
2017-10-05T07:53:34.514Z,98.75
2017-10-05T07:54:15.095Z,98.94
2017-10-05T07:54:55.682Z,98.94
2017-10-05T07:55:36.283Z,99.04
2017-10-05T07:56:16.872Z,99.04
2017-10-05T07:56:57.494Z,99.22
2017-10-05T07:57:38.089Z,99.13
2017-10-05T07:58:19.070Z,98.85
2017-10-05T07:58:59.439Z,99.41
2017-10-05T07:59:40.018Z,99.6
2017-10-05T08:00:20.613Z,99.41
2017-10-05T08:01:01.207Z,99.6
2017-10-05T08:01:41.773Z,99.32
2017-10-05T08:02:22.414Z,99.51
2017-10-05T08:03:03.658Z,99.6
2017-10-05T08:03:44.237Z,99.51
2017-10-05T08:04:24.845Z,99.8
2017-10-05T08:05:05.714Z,99.8
2017-10-05T08:05:46.283Z,99.41
2017-10-05T08:06:26.880Z,99.32
2017-10-05T08:07:07.502Z,99.8
2017-10-05T08:07:48.107Z,99.89
2017-10-05T08:08:28.714Z,99.99
2017-10-05T08:09:09.283Z,99.99
2017-10-05T08:09:49.877Z,99.99
2017-10-05T08:10:30.501Z,99.99
2017-10-05T08:11:11.195Z,99.99
2017-10-05T08:11:51.778Z,99.99
2017-10-05T08:12:32.375Z,99.99
2017-10-05T08:13:13.007Z,99.99
2017-10-05T08:13:53.596Z,99.99
2017-10-05T08:14:34.259Z,99.99
2017-10-05T08:15:14.849Z,99.99
2017-10-05T08:15:55.541Z,99.99
2017-10-05T08:16:36.103Z,99.99
2017-10-05T08:17:16.697Z,99.99
2017-10-05T08:17:57.278Z,99.89
2017-10-05T08:18:37.865Z,99.99
2017-10-05T08:19:18.489Z,99.99
2017-10-05T08:19:59.055Z,99.99
2017-10-05T08:20:39.653Z,99.99
2017-10-05T08:21:20.259Z,99.99
2017-10-05T08:22:00.832Z,99.99
2017-10-05T08:22:41.456Z,99.99
2017-10-05T08:23:22.067Z,99.99
2017-10-05T08:24:02.659Z,99.99
2017-10-05T08:24:43.240Z,99.99
2017-10-05T08:25:23.825Z,99.99
2017-10-05T08:26:04.423Z,99.99
2017-10-05T08:26:45.078Z,99.99
2017-10-05T08:27:25.735Z,99.99
2017-10-05T08:28:06.310Z,99.99
2017-10-05T08:28:46.891Z,99.99
2017-10-05T08:29:27.488Z,99.99
2017-10-05T08:30:08.069Z,99.99
2017-10-05T08:30:48.677Z,99.99
2017-10-05T08:31:29.247Z,99.99
2017-10-05T08:32:09.851Z,99.99
2017-10-05T08:32:50.436Z,99.99
2017-10-05T08:33:31.098Z,99.99
2017-10-05T08:34:11.709Z,99.99
2017-10-05T08:34:52.306Z,99.99
2017-10-05T08:35:32.884Z,99.99
2017-10-05T08:36:13.513Z,99.99
2017-10-05T08:36:54.107Z,99.99
2017-10-05T08:37:34.698Z,99.99
2017-10-05T08:38:15.288Z,99.99
2017-10-05T08:38:55.888Z,99.99
2017-10-05T08:39:36.479Z,99.99
2017-10-05T08:40:17.071Z,99.99
2017-10-05T08:40:57.678Z,99.99
2017-10-05T08:41:38.225Z,99.99
2017-10-05T08:42:18.807Z,99.99
2017-10-05T08:42:59.424Z,99.99
2017-10-05T08:43:40.005Z,99.99
2017-10-05T08:44:20.601Z,99.99
2017-10-05T08:45:01.170Z,99.99
2017-10-05T08:45:41.778Z,99.99
2017-10-05T08:46:22.407Z,99.99